sensor_id;sensor_type;location;lat;lon;timestamp;P1;durP1;ratioP1;P2;durP2;ratioP2
12703;SDS011;6416;52.182;7.650;2023-06-24T00:01:07;4.10;;;3.80;;
12703;SDS011;6416;52.182;7.650;2023-06-24T00:03:33;4.35;;;3.95;;
12703;SDS011;6416;52.182;7.650;2023-06-24T00:05:58;5.25;;;4.00;;
12703;SDS011;6416;52.182;7.650;2023-06-24T00:08:24;5.40;;;3.90;;
12703;SDS011;6416;52.182;7.650;2023-06-24T00:10:49;4.53;;;4.13;;
12703;SDS011;6416;52.182;7.650;2023-06-24T00:13:15;6.03;;;4.05;;
12703;SDS011;6416;52.182;7.650;2023-06-24T00:15:41;4.70;;;4.30;;
12703;SDS011;6416;52.182;7.650;2023-06-24T00:18:06;4.00;;;3.70;;
12703;SDS011;6416;52.182;7.650;2023-06-24T00:20:32;4.07;;;3.78;;
12703;SDS011;6416;52.182;7.650;2023-06-24T00:22:57;4.13;;;3.83;;
12703;SDS011;6416;52.182;7.650;2023-06-24T00:25:23;4.97;;;4.47;;
12703;SDS011;6416;52.182;7.650;2023-06-24T00:27:48;4.82;;;4.40;;
12703;SDS011;6416;52.182;7.650;2023-06-24T00:30:14;4.38;;;3.97;;
12703;SDS011;6416;52.182;7.650;2023-06-24T00:32:39;5.18;;;4.78;;
12703;SDS011;6416;52.182;7.650;2023-06-24T00:35:05;4.95;;;4.55;;
12703;SDS011;6416;52.182;7.650;2023-06-24T00:37:31;4.95;;;4.30;;
12703;SDS011;6416;52.182;7.650;2023-06-24T00:39:56;3.88;;;3.58;;
12703;SDS011;6416;52.182;7.650;2023-06-24T00:42:22;5.38;;;4.88;;
12703;SDS011;6416;52.182;7.650;2023-06-24T00:44:47;6.90;;;4.75;;
12703;SDS011;6416;52.182;7.650;2023-06-24T00:47:13;4.85;;;4.45;;
12703;SDS011;6416;52.182;7.650;2023-06-24T00:49:39;4.68;;;4.28;;
12703;SDS011;6416;52.182;7.650;2023-06-24T00:52:04;5.38;;;4.88;;
12703;SDS011;6416;52.182;7.650;2023-06-24T00:54:30;4.35;;;4.03;;
12703;SDS011;6416;52.182;7.650;2023-06-24T00:56:56;5.07;;;4.60;;
12703;SDS011;6416;52.182;7.650;2023-06-24T00:59:22;5.38;;;4.88;;
12703;SDS011;6416;52.182;7.650;2023-06-24T01:01:48;5.80;;;5.00;;
12703;SDS011;6416;52.182;7.650;2023-06-24T01:04:15;5.47;;;5.05;;
12703;SDS011;6416;52.182;7.650;2023-06-24T01:06:41;5.25;;;4.85;;
12703;SDS011;6416;52.182;7.650;2023-06-24T01:09:06;4.85;;;4.43;;
12703;SDS011;6416;52.182;7.650;2023-06-24T01:11:32;5.40;;;4.90;;
12703;SDS011;6416;52.182;7.650;2023-06-24T01:13:57;5.18;;;4.78;;
12703;SDS011;6416;52.182;7.650;2023-06-24T01:18:49;7.50;;;5.13;;
12703;SDS011;6416;52.182;7.650;2023-06-24T01:24:19;5.35;;;4.85;;
12703;SDS011;6416;52.182;7.650;2023-06-24T01:27:08;5.63;;;5.03;;
12703;SDS011;6416;52.182;7.650;2023-06-24T01:30:01;5.30;;;4.60;;
12703;SDS011;6416;52.182;7.650;2023-06-24T01:32:43;5.63;;;5.13;;
12703;SDS011;6416;52.182;7.650;2023-06-24T01:35:15;5.10;;;4.70;;
12703;SDS011;6416;52.182;7.650;2023-06-24T01:37:46;6.32;;;4.50;;
12703;SDS011;6416;52.182;7.650;2023-06-24T01:40:22;4.57;;;4.18;;
12703;SDS011;6416;52.182;7.650;2023-06-24T01:42:50;6.50;;;4.88;;
12703;SDS011;6416;52.182;7.650;2023-06-24T01:45:25;5.18;;;4.78;;
12703;SDS011;6416;52.182;7.650;2023-06-24T01:48:00;4.85;;;4.45;;
12703;SDS011;6416;52.182;7.650;2023-06-24T01:50:30;5.60;;;5.18;;
12703;SDS011;6416;52.182;7.650;2023-06-24T01:52:57;5.38;;;4.97;;
12703;SDS011;6416;52.182;7.650;2023-06-24T01:55:25;5.55;;;4.85;;
12703;SDS011;6416;52.182;7.650;2023-06-24T01:57:53;5.05;;;4.55;;
12703;SDS011;6416;52.182;7.650;2023-06-24T02:00:21;7.57;;;4.57;;
12703;SDS011;6416;52.182;7.650;2023-06-24T02:02:49;5.35;;;4.50;;
12703;SDS011;6416;52.182;7.650;2023-06-24T02:05:17;5.00;;;4.50;;
12703;SDS011;6416;52.182;7.650;2023-06-24T02:07:44;4.53;;;4.22;;
12703;SDS011;6416;52.182;7.650;2023-06-24T02:10:12;4.90;;;4.40;;
12703;SDS011;6416;52.182;7.650;2023-06-24T02:12:38;4.55;;;4.15;;
12703;SDS011;6416;52.182;7.650;2023-06-24T02:15:05;4.35;;;4.05;;
12703;SDS011;6416;52.182;7.650;2023-06-24T02:17:32;5.10;;;4.35;;
12703;SDS011;6416;52.182;7.650;2023-06-24T02:19:58;4.60;;;4.20;;
12703;SDS011;6416;52.182;7.650;2023-06-24T02:22:24;5.00;;;4.60;;
12703;SDS011;6416;52.182;7.650;2023-06-24T02:24:50;4.95;;;4.30;;
12703;SDS011;6416;52.182;7.650;2023-06-24T02:27:17;5.45;;;4.40;;
12703;SDS011;6416;52.182;7.650;2023-06-24T02:29:43;4.47;;;4.07;;
12703;SDS011;6416;52.182;7.650;2023-06-24T02:32:09;5.00;;;4.60;;
12703;SDS011;6416;52.182;7.650;2023-06-24T02:34:35;4.82;;;4.43;;
12703;SDS011;6416;52.182;7.650;2023-06-24T02:37:01;4.93;;;4.47;;
12703;SDS011;6416;52.182;7.650;2023-06-24T02:39:26;4.90;;;4.53;;
12703;SDS011;6416;52.182;7.650;2023-06-24T02:41:52;4.78;;;4.45;;
12703;SDS011;6416;52.182;7.650;2023-06-24T02:44:17;5.05;;;4.55;;
12703;SDS011;6416;52.182;7.650;2023-06-24T02:46:43;5.55;;;5.05;;
12703;SDS011;6416;52.182;7.650;2023-06-24T02:49:11;5.00;;;4.60;;
12703;SDS011;6416;52.182;7.650;2023-06-24T02:51:38;5.25;;;4.75;;
12703;SDS011;6416;52.182;7.650;2023-06-24T02:54:04;5.07;;;4.68;;
12703;SDS011;6416;52.182;7.650;2023-06-24T02:56:30;5.38;;;4.97;;
12703;SDS011;6416;52.182;7.650;2023-06-24T02:58:57;7.20;;;5.18;;
12703;SDS011;6416;52.182;7.650;2023-06-24T03:01:23;4.97;;;4.57;;
12703;SDS011;6416;52.182;7.650;2023-06-24T03:03:53;5.05;;;4.65;;
12703;SDS011;6416;52.182;7.650;2023-06-24T03:06:19;6.53;;;4.80;;
12703;SDS011;6416;52.182;7.650;2023-06-24T03:08:46;5.53;;;5.03;;
12703;SDS011;6416;52.182;7.650;2023-06-24T03:11:13;5.50;;;4.53;;
12703;SDS011;6416;52.182;7.650;2023-06-24T03:13:39;5.40;;;4.90;;
12703;SDS011;6416;52.182;7.650;2023-06-24T03:16:05;4.80;;;4.40;;
12703;SDS011;6416;52.182;7.650;2023-06-24T03:18:30;5.60;;;5.10;;
12703;SDS011;6416;52.182;7.650;2023-06-24T03:20:56;4.93;;;4.47;;
12703;SDS011;6416;52.182;7.650;2023-06-24T03:23:21;5.65;;;5.15;;
12703;SDS011;6416;52.182;7.650;2023-06-24T03:25:47;5.28;;;4.78;;
12703;SDS011;6416;52.182;7.650;2023-06-24T03:28:12;5.43;;;4.70;;
12703;SDS011;6416;52.182;7.650;2023-06-24T03:30:38;6.05;;;4.90;;
12703;SDS011;6416;52.182;7.650;2023-06-24T03:33:03;5.20;;;4.70;;
12703;SDS011;6416;52.182;7.650;2023-06-24T03:35:29;6.70;;;5.20;;
12703;SDS011;6416;52.182;7.650;2023-06-24T03:37:54;7.25;;;5.13;;
12703;SDS011;6416;52.182;7.650;2023-06-24T03:40:20;7.55;;;4.88;;
12703;SDS011;6416;52.182;7.650;2023-06-24T03:42:46;5.50;;;4.70;;
12703;SDS011;6416;52.182;7.650;2023-06-24T03:45:11;6.03;;;5.20;;
12703;SDS011;6416;52.182;7.650;2023-06-24T03:47:36;9.13;;;5.63;;
12703;SDS011;6416;52.182;7.650;2023-06-24T03:50:02;6.05;;;5.38;;
12703;SDS011;6416;52.182;7.650;2023-06-24T03:52:27;7.13;;;5.38;;
12703;SDS011;6416;52.182;7.650;2023-06-24T03:54:53;6.82;;;5.82;;
12703;SDS011;6416;52.182;7.650;2023-06-24T03:57:18;9.05;;;6.03;;
12703;SDS011;6416;52.182;7.650;2023-06-24T03:59:44;8.95;;;5.85;;
12703;SDS011;6416;52.182;7.650;2023-06-24T04:02:09;8.90;;;6.00;;
12703;SDS011;6416;52.182;7.650;2023-06-24T04:04:35;5.63;;;4.90;;
12703;SDS011;6416;52.182;7.650;2023-06-24T04:07:01;5.70;;;5.20;;
12703;SDS011;6416;52.182;7.650;2023-06-24T04:09:28;6.22;;;5.63;;
12703;SDS011;6416;52.182;7.650;2023-06-24T04:11:54;6.78;;;6.07;;
12703;SDS011;6416;52.182;7.650;2023-06-24T04:14:19;8.02;;;6.40;;
12703;SDS011;6416;52.182;7.650;2023-06-24T04:16:45;6.68;;;6.07;;
12703;SDS011;6416;52.182;7.650;2023-06-24T04:19:10;8.52;;;6.40;;
12703;SDS011;6416;52.182;7.650;2023-06-24T04:21:36;6.68;;;6.03;;
12703;SDS011;6416;52.182;7.650;2023-06-24T04:24:01;10.65;;;6.38;;
12703;SDS011;6416;52.182;7.650;2023-06-24T04:26:27;6.82;;;6.22;;
12703;SDS011;6416;52.182;7.650;2023-06-24T04:28:52;6.72;;;5.95;;
12703;SDS011;6416;52.182;7.650;2023-06-24T04:31:18;6.82;;;5.85;;
12703;SDS011;6416;52.182;7.650;2023-06-24T04:33:43;6.85;;;6.15;;
12703;SDS011;6416;52.182;7.650;2023-06-24T04:36:09;6.65;;;6.05;;
12703;SDS011;6416;52.182;7.650;2023-06-24T04:38:37;6.28;;;5.68;;
12703;SDS011;6416;52.182;7.650;2023-06-24T04:41:03;7.47;;;6.13;;
12703;SDS011;6416;52.182;7.650;2023-06-24T04:43:29;7.57;;;6.00;;
12703;SDS011;6416;52.182;7.650;2023-06-24T04:45:54;6.35;;;5.70;;
12703;SDS011;6416;52.182;7.650;2023-06-24T04:48:20;6.47;;;5.85;;
12703;SDS011;6416;52.182;7.650;2023-06-24T04:50:45;7.20;;;6.50;;
12703;SDS011;6416;52.182;7.650;2023-06-24T04:53:11;6.20;;;5.60;;
12703;SDS011;6416;52.182;7.650;2023-06-24T04:55:36;8.23;;;6.03;;
12703;SDS011;6416;52.182;7.650;2023-06-24T04:58:02;8.32;;;5.63;;
12703;SDS011;6416;52.182;7.650;2023-06-24T05:00:27;8.35;;;6.43;;
12703;SDS011;6416;52.182;7.650;2023-06-24T05:02:52;6.25;;;5.65;;
12703;SDS011;6416;52.182;7.650;2023-06-24T05:05:18;8.02;;;5.97;;
12703;SDS011;6416;52.182;7.650;2023-06-24T05:07:43;6.88;;;6.18;;
12703;SDS011;6416;52.182;7.650;2023-06-24T05:10:09;7.05;;;6.30;;
12703;SDS011;6416;52.182;7.650;2023-06-24T05:12:34;8.57;;;6.13;;
12703;SDS011;6416;52.182;7.650;2023-06-24T05:15:00;8.98;;;6.32;;
12703;SDS011;6416;52.182;7.650;2023-06-24T05:17:25;7.60;;;5.80;;
12703;SDS011;6416;52.182;7.650;2023-06-24T05:19:51;6.68;;;5.93;;
12703;SDS011;6416;52.182;7.650;2023-06-24T05:22:16;10.13;;;6.10;;
12703;SDS011;6416;52.182;7.650;2023-06-24T05:24:42;6.72;;;5.88;;
12703;SDS011;6416;52.182;7.650;2023-06-24T05:27:07;6.10;;;5.60;;
12703;SDS011;6416;52.182;7.650;2023-06-24T05:29:33;6.95;;;6.28;;
12703;SDS011;6416;52.182;7.650;2023-06-24T05:31:59;6.45;;;5.88;;
12703;SDS011;6416;52.182;7.650;2023-06-24T05:34:25;7.10;;;6.45;;
12703;SDS011;6416;52.182;7.650;2023-06-24T05:36:50;6.72;;;6.13;;
12703;SDS011;6416;52.182;7.650;2023-06-24T05:39:16;6.50;;;5.90;;
12703;SDS011;6416;52.182;7.650;2023-06-24T05:41:42;6.05;;;5.45;;
12703;SDS011;6416;52.182;7.650;2023-06-24T05:44:08;6.15;;;5.57;;
12703;SDS011;6416;52.182;7.650;2023-06-24T05:46:34;5.93;;;5.43;;
12703;SDS011;6416;52.182;7.650;2023-06-24T05:48:59;6.50;;;5.88;;
12703;SDS011;6416;52.182;7.650;2023-06-24T05:51:25;5.65;;;5.07;;
12703;SDS011;6416;52.182;7.650;2023-06-24T05:53:50;6.50;;;5.90;;
12703;SDS011;6416;52.182;7.650;2023-06-24T05:56:16;6.35;;;5.30;;
12703;SDS011;6416;52.182;7.650;2023-06-24T05:58:41;6.35;;;5.85;;
12703;SDS011;6416;52.182;7.650;2023-06-24T06:01:07;5.43;;;4.95;;
12703;SDS011;6416;52.182;7.650;2023-06-24T06:03:34;5.93;;;5.43;;
12703;SDS011;6416;52.182;7.650;2023-06-24T06:05:59;5.75;;;5.25;;
12703;SDS011;6416;52.182;7.650;2023-06-24T06:08:24;6.65;;;5.32;;
12703;SDS011;6416;52.182;7.650;2023-06-24T06:10:50;5.93;;;5.40;;
12703;SDS011;6416;52.182;7.650;2023-06-24T06:13:15;6.75;;;6.15;;
12703;SDS011;6416;52.182;7.650;2023-06-24T06:15:41;7.30;;;5.90;;
12703;SDS011;6416;52.182;7.650;2023-06-24T06:18:07;5.75;;;5.25;;
12703;SDS011;6416;52.182;7.650;2023-06-24T06:20:32;5.80;;;5.05;;
12703;SDS011;6416;52.182;7.650;2023-06-24T06:22:58;5.55;;;5.10;;
12703;SDS011;6416;52.182;7.650;2023-06-24T06:25:23;6.20;;;5.60;;
12703;SDS011;6416;52.182;7.650;2023-06-24T06:27:48;6.45;;;5.88;;
12703;SDS011;6416;52.182;7.650;2023-06-24T06:30:14;6.32;;;5.80;;
12703;SDS011;6416;52.182;7.650;2023-06-24T06:32:40;6.18;;;5.57;;
12703;SDS011;6416;52.182;7.650;2023-06-24T06:35:06;6.95;;;5.93;;
12703;SDS011;6416;52.182;7.650;2023-06-24T06:37:32;6.18;;;5.65;;
12703;SDS011;6416;52.182;7.650;2023-06-24T06:39:57;5.60;;;5.15;;
12703;SDS011;6416;52.182;7.650;2023-06-24T06:42:22;5.97;;;5.43;;
12703;SDS011;6416;52.182;7.650;2023-06-24T06:44:48;5.95;;;5.38;;
12703;SDS011;6416;52.182;7.650;2023-06-24T06:47:13;6.20;;;5.10;;
12703;SDS011;6416;52.182;7.650;2023-06-24T06:49:39;5.72;;;5.25;;
12703;SDS011;6416;52.182;7.650;2023-06-24T06:52:05;7.07;;;5.53;;
12703;SDS011;6416;52.182;7.650;2023-06-24T06:54:31;7.30;;;5.55;;
12703;SDS011;6416;52.182;7.650;2023-06-24T06:57:00;5.43;;;4.93;;
12703;SDS011;6416;52.182;7.650;2023-06-24T06:59:28;5.57;;;5.07;;
12703;SDS011;6416;52.182;7.650;2023-06-24T07:01:54;5.47;;;5.07;;
12703;SDS011;6416;52.182;7.650;2023-06-24T07:04:20;5.95;;;5.05;;
12703;SDS011;6416;52.182;7.650;2023-06-24T07:06:45;5.40;;;4.90;;
12703;SDS011;6416;52.182;7.650;2023-06-24T07:09:11;5.65;;;4.55;;
12703;SDS011;6416;52.182;7.650;2023-06-24T07:11:36;6.57;;;4.82;;
12703;SDS011;6416;52.182;7.650;2023-06-24T07:14:02;4.38;;;4.00;;
12703;SDS011;6416;52.182;7.650;2023-06-24T07:16:27;4.55;;;4.13;;
12703;SDS011;6416;52.182;7.650;2023-06-24T07:18:53;4.07;;;3.75;;
12703;SDS011;6416;52.182;7.650;2023-06-24T07:21:18;5.00;;;4.60;;
12703;SDS011;6416;52.182;7.650;2023-06-24T07:23:44;4.28;;;3.85;;
12703;SDS011;6416;52.182;7.650;2023-06-24T07:26:10;4.28;;;3.80;;
12703;SDS011;6416;52.182;7.650;2023-06-24T07:28:35;4.75;;;4.00;;
12703;SDS011;6416;52.182;7.650;2023-06-24T07:31:01;3.38;;;3.08;;
12703;SDS011;6416;52.182;7.650;2023-06-24T07:33:26;4.18;;;3.78;;
12703;SDS011;6416;52.182;7.650;2023-06-24T07:35:52;5.07;;;3.47;;
12703;SDS011;6416;52.182;7.650;2023-06-24T07:38:17;4.05;;;3.70;;
12703;SDS011;6416;52.182;7.650;2023-06-24T07:40:43;3.88;;;3.58;;
12703;SDS011;6416;52.182;7.650;2023-06-24T07:43:08;3.67;;;3.38;;
12703;SDS011;6416;52.182;7.650;2023-06-24T07:45:34;3.70;;;3.40;;
12703;SDS011;6416;52.182;7.650;2023-06-24T07:47:59;3.70;;;3.40;;
12703;SDS011;6416;52.182;7.650;2023-06-24T07:50:25;3.97;;;3.42;;
12703;SDS011;6416;52.182;7.650;2023-06-24T07:52:50;3.53;;;2.92;;
12703;SDS011;6416;52.182;7.650;2023-06-24T07:55:15;3.35;;;3.05;;
12703;SDS011;6416;52.182;7.650;2023-06-24T07:57:44;4.10;;;3.10;;
12703;SDS011;6416;52.182;7.650;2023-06-24T08:00:10;4.60;;;3.00;;
12703;SDS011;6416;52.182;7.650;2023-06-24T08:02:36;3.38;;;3.08;;
12703;SDS011;6416;52.182;7.650;2023-06-24T08:05:02;3.53;;;3.13;;
12703;SDS011;6416;52.182;7.650;2023-06-24T08:07:27;3.42;;;3.10;;
12703;SDS011;6416;52.182;7.650;2023-06-24T08:09:53;3.47;;;3.00;;
12703;SDS011;6416;52.182;7.650;2023-06-24T08:12:18;3.20;;;2.90;;
12703;SDS011;6416;52.182;7.650;2023-06-24T08:14:44;3.03;;;2.78;;
12703;SDS011;6416;52.182;7.650;2023-06-24T08:17:09;3.50;;;3.22;;
12703;SDS011;6416;52.182;7.650;2023-06-24T08:19:35;3.30;;;3.00;;
12703;SDS011;6416;52.182;7.650;2023-06-24T08:22:00;3.00;;;2.78;;
12703;SDS011;6416;52.182;7.650;2023-06-24T08:24:25;4.35;;;3.38;;
12703;SDS011;6416;52.182;7.650;2023-06-24T08:26:51;3.22;;;2.88;;
12703;SDS011;6416;52.182;7.650;2023-06-24T08:29:16;4.43;;;3.70;;
12703;SDS011;6416;52.182;7.650;2023-06-24T08:31:42;4.32;;;3.13;;
12703;SDS011;6416;52.182;7.650;2023-06-24T08:34:07;3.15;;;2.90;;
12703;SDS011;6416;52.182;7.650;2023-06-24T08:36:33;3.55;;;3.25;;
12703;SDS011;6416;52.182;7.650;2023-06-24T08:38:58;3.70;;;3.40;;
12703;SDS011;6416;52.182;7.650;2023-06-24T08:41:24;5.18;;;3.20;;
12703;SDS011;6416;52.182;7.650;2023-06-24T08:43:49;4.05;;;3.47;;
12703;SDS011;6416;52.182;7.650;2023-06-24T08:46:16;3.60;;;3.28;;
12703;SDS011;6416;52.182;7.650;2023-06-24T08:48:42;3.25;;;2.95;;
12703;SDS011;6416;52.182;7.650;2023-06-24T08:51:11;3.50;;;3.20;;
12703;SDS011;6416;52.182;7.650;2023-06-24T08:53:41;3.30;;;2.83;;
12703;SDS011;6416;52.182;7.650;2023-06-24T08:56:08;3.13;;;2.85;;
12703;SDS011;6416;52.182;7.650;2023-06-24T08:58:34;3.10;;;2.83;;
12703;SDS011;6416;52.182;7.650;2023-06-24T09:01:02;3.38;;;2.85;;
12703;SDS011;6416;52.182;7.650;2023-06-24T09:03:29;3.28;;;2.75;;
12703;SDS011;6416;52.182;7.650;2023-06-24T09:05:54;4.85;;;2.88;;
12703;SDS011;6416;52.182;7.650;2023-06-24T09:08:20;3.95;;;2.97;;
12703;SDS011;6416;52.182;7.650;2023-06-24T09:10:46;2.83;;;2.42;;
12703;SDS011;6416;52.182;7.650;2023-06-24T09:13:18;3.45;;;2.78;;
12703;SDS011;6416;52.182;7.650;2023-06-24T09:15:43;3.50;;;3.20;;
12703;SDS011;6416;52.182;7.650;2023-06-24T09:18:09;3.45;;;3.15;;
12703;SDS011;6416;52.182;7.650;2023-06-24T09:20:34;2.90;;;2.58;;
12703;SDS011;6416;52.182;7.650;2023-06-24T09:23:01;3.20;;;2.90;;
12703;SDS011;6416;52.182;7.650;2023-06-24T09:25:28;3.47;;;3.10;;
12703;SDS011;6416;52.182;7.650;2023-06-24T09:27:54;3.70;;;3.40;;
12703;SDS011;6416;52.182;7.650;2023-06-24T09:30:20;4.97;;;2.90;;
12703;SDS011;6416;52.182;7.650;2023-06-24T09:32:46;3.70;;;3.33;;
12703;SDS011;6416;52.182;7.650;2023-06-24T09:35:17;4.03;;;3.58;;
12703;SDS011;6416;52.182;7.650;2023-06-24T09:37:48;3.85;;;3.35;;
12703;SDS011;6416;52.182;7.650;2023-06-24T09:40:22;3.50;;;3.10;;
12703;SDS011;6416;52.182;7.650;2023-06-24T09:43:06;4.03;;;3.60;;
12703;SDS011;6416;52.182;7.650;2023-06-24T09:45:31;4.25;;;3.85;;
12703;SDS011;6416;52.182;7.650;2023-06-24T09:47:57;4.95;;;4.45;;
12703;SDS011;6416;52.182;7.650;2023-06-24T09:50:22;4.25;;;3.85;;
12703;SDS011;6416;52.182;7.650;2023-06-24T09:52:49;4.07;;;3.70;;
12703;SDS011;6416;52.182;7.650;2023-06-24T09:55:17;3.55;;;3.25;;
12703;SDS011;6416;52.182;7.650;2023-06-24T09:57:44;5.00;;;3.85;;
12703;SDS011;6416;52.182;7.650;2023-06-24T10:00:14;3.63;;;3.33;;
12703;SDS011;6416;52.182;7.650;2023-06-24T10:02:41;3.70;;;3.40;;
12703;SDS011;6416;52.182;7.650;2023-06-24T10:05:07;3.85;;;3.35;;
12703;SDS011;6416;52.182;7.650;2023-06-24T10:07:32;5.65;;;4.25;;
12703;SDS011;6416;52.182;7.650;2023-06-24T10:10:02;10.85;;;4.32;;
12703;SDS011;6416;52.182;7.650;2023-06-24T10:12:28;3.60;;;3.30;;
12703;SDS011;6416;52.182;7.650;2023-06-24T10:14:54;5.72;;;3.42;;
12703;SDS011;6416;52.182;7.650;2023-06-24T10:17:20;3.50;;;3.20;;
12703;SDS011;6416;52.182;7.650;2023-06-24T10:19:45;4.60;;;3.75;;
12703;SDS011;6416;52.182;7.650;2023-06-24T10:22:11;3.13;;;2.90;;
12703;SDS011;6416;52.182;7.650;2023-06-24T10:24:40;3.90;;;3.47;;
12703;SDS011;6416;52.182;7.650;2023-06-24T10:27:07;3.00;;;2.80;;
12703;SDS011;6416;52.182;7.650;2023-06-24T10:29:38;4.50;;;3.88;;
12703;SDS011;6416;52.182;7.650;2023-06-24T10:32:07;4.03;;;3.10;;
12703;SDS011;6416;52.182;7.650;2023-06-24T10:34:34;7.55;;;2.83;;
12703;SDS011;6416;52.182;7.650;2023-06-24T10:47:34;3.38;;;3.08;;
12703;SDS011;6416;52.182;7.650;2023-06-24T10:50:04;3.58;;;3.28;;
12703;SDS011;6416;52.182;7.650;2023-06-24T10:52:30;4.95;;;3.13;;
12703;SDS011;6416;52.182;7.650;2023-06-24T10:54:57;8.23;;;3.85;;
12703;SDS011;6416;52.182;7.650;2023-06-24T10:57:26;3.45;;;3.15;;
12703;SDS011;6416;52.182;7.650;2023-06-24T10:59:53;3.70;;;3.40;;
12703;SDS011;6416;52.182;7.650;2023-06-24T11:02:21;4.38;;;3.28;;
12703;SDS011;6416;52.182;7.650;2023-06-24T11:04:54;4.30;;;3.55;;
12703;SDS011;6416;52.182;7.650;2023-06-24T11:07:25;3.78;;;3.47;;
12703;SDS011;6416;52.182;7.650;2023-06-24T11:09:52;4.15;;;3.10;;
12703;SDS011;6416;52.182;7.650;2023-06-24T11:12:19;3.47;;;2.85;;
12703;SDS011;6416;52.182;7.650;2023-06-24T11:14:55;3.60;;;3.30;;
12703;SDS011;6416;52.182;7.650;2023-06-24T11:17:31;3.75;;;3.35;;
12703;SDS011;6416;52.182;7.650;2023-06-24T11:19:58;3.53;;;3.22;;
12703;SDS011;6416;52.182;7.650;2023-06-24T11:22:24;3.72;;;2.83;;
12703;SDS011;6416;52.182;7.650;2023-06-24T11:24:51;3.38;;;3.05;;
12703;SDS011;6416;52.182;7.650;2023-06-24T11:27:23;4.15;;;3.08;;
12703;SDS011;6416;52.182;7.650;2023-06-24T11:29:51;4.60;;;3.30;;
12703;SDS011;6416;52.182;7.650;2023-06-24T11:32:17;3.95;;;3.00;;
12703;SDS011;6416;52.182;7.650;2023-06-24T11:34:43;3.70;;;3.40;;
12703;SDS011;6416;52.182;7.650;2023-06-24T11:37:09;5.57;;;2.90;;
12703;SDS011;6416;52.182;7.650;2023-06-24T11:39:39;3.55;;;3.15;;
12703;SDS011;6416;52.182;7.650;2023-06-24T11:42:07;3.50;;;2.88;;
12703;SDS011;6416;52.182;7.650;2023-06-24T11:44:33;5.72;;;2.72;;
12703;SDS011;6416;52.182;7.650;2023-06-24T11:47:05;3.65;;;2.45;;
12703;SDS011;6416;52.182;7.650;2023-06-24T11:49:32;3.20;;;2.90;;
12703;SDS011;6416;52.182;7.650;2023-06-24T11:52:13;3.20;;;2.90;;
12703;SDS011;6416;52.182;7.650;2023-06-24T11:54:40;3.40;;;2.33;;
12703;SDS011;6416;52.182;7.650;2023-06-24T11:57:06;2.83;;;2.50;;
12703;SDS011;6416;52.182;7.650;2023-06-24T11:59:31;5.95;;;2.67;;
12703;SDS011;6416;52.182;7.650;2023-06-24T12:01:57;4.10;;;2.35;;
12703;SDS011;6416;52.182;7.650;2023-06-24T12:04:27;3.53;;;2.83;;
12703;SDS011;6416;52.182;7.650;2023-06-24T12:06:53;3.30;;;3.00;;
12703;SDS011;6416;52.182;7.650;2023-06-24T12:09:19;4.78;;;2.72;;
12703;SDS011;6416;52.182;7.650;2023-06-24T12:11:44;3.67;;;3.17;;
12703;SDS011;6416;52.182;7.650;2023-06-24T12:14:10;3.25;;;2.95;;
12703;SDS011;6416;52.182;7.650;2023-06-24T12:16:35;3.97;;;2.95;;
12703;SDS011;6416;52.182;7.650;2023-06-24T12:19:01;4.00;;;2.28;;
12703;SDS011;6416;52.182;7.650;2023-06-24T12:21:27;4.80;;;2.33;;
12703;SDS011;6416;52.182;7.650;2023-06-24T12:23:53;2.25;;;2.05;;
12703;SDS011;6416;52.182;7.650;2023-06-24T12:26:18;3.13;;;2.30;;
12703;SDS011;6416;52.182;7.650;2023-06-24T12:28:44;2.95;;;2.28;;
12703;SDS011;6416;52.182;7.650;2023-06-24T12:31:09;2.60;;;2.13;;
12703;SDS011;6416;52.182;7.650;2023-06-24T12:33:35;2.83;;;2.25;;
12703;SDS011;6416;52.182;7.650;2023-06-24T12:36:01;2.55;;;2.35;;
12703;SDS011;6416;52.182;7.650;2023-06-24T12:38:26;2.33;;;2.08;;
12703;SDS011;6416;52.182;7.650;2023-06-24T12:40:52;1.88;;;1.77;;
12703;SDS011;6416;52.182;7.650;2023-06-24T12:43:17;3.35;;;2.20;;
12703;SDS011;6416;52.182;7.650;2023-06-24T12:45:43;2.38;;;2.17;;
12703;SDS011;6416;52.182;7.650;2023-06-24T12:48:08;2.30;;;2.10;;
12703;SDS011;6416;52.182;7.650;2023-06-24T12:50:34;2.10;;;1.90;;
12703;SDS011;6416;52.182;7.650;2023-06-24T12:53:01;2.40;;;2.20;;
12703;SDS011;6416;52.182;7.650;2023-06-24T12:55:27;2.75;;;2.42;;
12703;SDS011;6416;52.182;7.650;2023-06-24T12:57:52;2.72;;;2.25;;
12703;SDS011;6416;52.182;7.650;2023-06-24T13:00:21;3.50;;;2.15;;
12703;SDS011;6416;52.182;7.650;2023-06-24T13:02:48;2.30;;;2.10;;
12703;SDS011;6416;52.182;7.650;2023-06-24T13:05:14;2.60;;;2.03;;
12703;SDS011;6416;52.182;7.650;2023-06-24T13:07:40;2.22;;;2.03;;
12703;SDS011;6416;52.182;7.650;2023-06-24T13:10:06;2.33;;;2.13;;
12703;SDS011;6416;52.182;7.650;2023-06-24T13:12:32;2.17;;;1.98;;
12703;SDS011;6416;52.182;7.650;2023-06-24T13:14:58;2.40;;;2.20;;
12703;SDS011;6416;52.182;7.650;2023-06-24T13:17:24;1.92;;;1.83;;
12703;SDS011;6416;52.182;7.650;2023-06-24T13:19:51;2.20;;;2.00;;
12703;SDS011;6416;52.182;7.650;2023-06-24T13:22:16;2.17;;;2.00;;
12703;SDS011;6416;52.182;7.650;2023-06-24T13:24:42;2.10;;;2.00;;
12703;SDS011;6416;52.182;7.650;2023-06-24T13:27:08;2.35;;;2.15;;
12703;SDS011;6416;52.182;7.650;2023-06-24T13:29:34;4.38;;;2.83;;
12703;SDS011;6416;52.182;7.650;2023-06-24T13:31:59;2.25;;;2.05;;
12703;SDS011;6416;52.182;7.650;2023-06-24T13:34:25;2.75;;;2.22;;
12703;SDS011;6416;52.182;7.650;2023-06-24T13:36:50;2.90;;;2.10;;
12703;SDS011;6416;52.182;7.650;2023-06-24T13:39:16;2.00;;;1.80;;
12703;SDS011;6416;52.182;7.650;2023-06-24T13:41:41;2.05;;;1.90;;
12703;SDS011;6416;52.182;7.650;2023-06-24T13:44:07;2.10;;;2.00;;
12703;SDS011;6416;52.182;7.650;2023-06-24T13:46:33;3.10;;;2.03;;
12703;SDS011;6416;52.182;7.650;2023-06-24T13:48:58;2.03;;;1.90;;
12703;SDS011;6416;52.182;7.650;2023-06-24T13:51:24;2.28;;;2.08;;
12703;SDS011;6416;52.182;7.650;2023-06-24T13:53:51;2.45;;;2.08;;
12703;SDS011;6416;52.182;7.650;2023-06-24T13:56:18;2.20;;;1.98;;
12703;SDS011;6416;52.182;7.650;2023-06-24T13:58:45;2.03;;;1.80;;
12703;SDS011;6416;52.182;7.650;2023-06-24T14:01:11;2.15;;;1.95;;
12703;SDS011;6416;52.182;7.650;2023-06-24T14:03:37;2.28;;;2.08;;
12703;SDS011;6416;52.182;7.650;2023-06-24T14:06:02;1.75;;;1.63;;
12703;SDS011;6416;52.182;7.650;2023-06-24T14:08:28;2.20;;;2.00;;
12703;SDS011;6416;52.182;7.650;2023-06-24T14:10:55;1.90;;;1.80;;
12703;SDS011;6416;52.182;7.650;2023-06-24T14:13:21;2.85;;;2.35;;
12703;SDS011;6416;52.182;7.650;2023-06-24T14:15:47;2.80;;;2.45;;
12703;SDS011;6416;52.182;7.650;2023-06-24T14:18:12;2.92;;;2.47;;
12703;SDS011;6416;52.182;7.650;2023-06-24T14:20:38;2.72;;;2.53;;
12703;SDS011;6416;52.182;7.650;2023-06-24T14:23:04;3.20;;;2.63;;
12703;SDS011;6416;52.182;7.650;2023-06-24T14:25:30;2.60;;;2.40;;
12703;SDS011;6416;52.182;7.650;2023-06-24T14:27:56;2.78;;;2.50;;
12703;SDS011;6416;52.182;7.650;2023-06-24T14:30:21;2.40;;;2.20;;
12703;SDS011;6416;52.182;7.650;2023-06-24T14:32:47;4.00;;;2.45;;
12703;SDS011;6416;52.182;7.650;2023-06-24T14:35:12;2.75;;;2.38;;
12703;SDS011;6416;52.182;7.650;2023-06-24T14:37:38;2.30;;;2.10;;
12703;SDS011;6416;52.182;7.650;2023-06-24T14:40:03;2.50;;;2.30;;
12703;SDS011;6416;52.182;7.650;2023-06-24T14:42:29;2.00;;;1.90;;
12703;SDS011;6416;52.182;7.650;2023-06-24T14:44:55;2.10;;;1.90;;
12703;SDS011;6416;52.182;7.650;2023-06-24T14:47:20;2.83;;;2.33;;
12703;SDS011;6416;52.182;7.650;2023-06-24T14:49:46;2.05;;;1.85;;
12703;SDS011;6416;52.182;7.650;2023-06-24T14:52:14;2.95;;;2.50;;
12703;SDS011;6416;52.182;7.650;2023-06-24T14:54:40;1.98;;;1.83;;
12703;SDS011;6416;52.182;7.650;2023-06-24T14:57:05;2.38;;;2.17;;
12703;SDS011;6416;52.182;7.650;2023-06-24T14:59:31;2.88;;;2.67;;
12703;SDS011;6416;52.182;7.650;2023-06-24T15:01:56;2.10;;;2.00;;
12703;SDS011;6416;52.182;7.650;2023-06-24T15:04:21;2.03;;;1.83;;
12703;SDS011;6416;52.182;7.650;2023-06-24T15:06:47;2.50;;;2.30;;
12703;SDS011;6416;52.182;7.650;2023-06-24T15:09:12;2.60;;;2.40;;
12703;SDS011;6416;52.182;7.650;2023-06-24T15:11:38;2.47;;;2.10;;